Portland — V7QP2 — position and weather

sailwx.info

Track history (hours):
 
Tides and Currents Weather Stations Pressure Air Temp Water Temp Dewpoint Dewpoint Depression Visibility Wind Speed Wind Dir Waves Ship Positions

Portland

Last reported at 2018-May-15 17:21 UTC. Time now 2018-Jun-23 15:43 UTC.
Position N 09°15' W 079°55'.
Warning: this ship's position is 38 days out of date.

Length 190 m; draft 12 m.

Type: Cargo ship. MMSI: 538003411.

Date/timePositionNaut miles runAvg speedWind from/ knotsBaromVisibWave heightAir tempDewpointWater temp
2018-May-15 17:21N 09°15' W 079°55'1 0.1
2018-May-15 11:30N 09°15' W 079°55'0 0.0
2018-May-15 10:03N 09°15' W 079°55'0 0.0
2018-May-15 10:00N 09°15' W 079°55'0 0.0
2018-May-15 03:39N 09°15' W 079°55'0 0.0
2018-May-15 03:18N 09°15' W 079°55'0 0.0
2018-May-15 03:00N 09°15' W 079°55'0 0.0
2018-May-15 00:45N 09°15' W 079°55'0 0.1
2018-May-15 00:21N 09°15' W 079°55'0 0.0
2018-May-15 00:00N 09°15' W 079°55'0 0.0
2018-May-14 23:12N 09°15' W 079°55'0 0.1
2018-May-14 22:45N 09°15' W 079°55'0 0.1
2018-May-14 22:25N 09°15' W 079°55'0 0.1
2018-May-14 21:58N 09°15' W 079°55'1 2.0
2018-May-14 21:30N 09°16' W 079°55'0 0.4
2018-May-14 21:00N 09°16' W 079°55'0 0.4
2018-May-14 20:30N 09°17' W 079°55'0 0.3
2018-May-14 20:00N 09°17' W 079°55'1 2.4
2018-May-14 19:31N 09°18' W 079°55'3 6.6
2018-May-14 19:00N 09°21' W 079°55'2 3.0
2018-May-14 18:28N 09°23' W 079°55'0 0.1
2018-May-14 17:58N 09°23' W 079°55'0 0.0
2018-May-14 17:28N 09°23' W 079°55'0 0.0
2018-May-14 16:58N 09°23' W 079°55'0 0.0
2018-May-14 16:28N 09°23' W 079°55'0 0.1
2018-May-14 15:58N 09°23' W 079°55'0 0.1
2018-May-14 15:28N 09°23' W 079°55'0 0.0
2018-May-14 14:58N 09°23' W 079°55'0 0.1
2018-May-14 14:28N 09°23' W 079°55'0 0.6
2018-May-14 14:01N 09°23' W 079°55'3 5.0
2018-May-14 13:31N 09°26' W 079°55'3 3.8
2018-May-14 12:50N 09°28' W 079°56'1 2.4
2018-May-14 12:27N 09°29' W 079°57'0 0.2
2018-May-14 11:54N 09°29' W 079°57'0 0.0
2018-May-14 11:30N 09°29' W 079°57'0 0.0
2018-May-14 10:42N 09°29' W 079°57'0 0.0
2018-May-14 10:30N 09°29' W 079°57'0 0.0
2018-May-14 10:00N 09°29' W 079°57'0 0.0
2018-May-14 09:30N 09°29' W 079°57'0 0.0
2018-May-14 09:00N 09°29' W 079°57'0 0.0
2018-May-14 08:27N 09°29' W 079°57'0 0.0
2018-May-14 08:00N 09°29' W 079°57'0 0.0
2018-May-14 07:30N 09°29' W 079°57'0 0.0
2018-May-14 06:57N 09°29' W 079°57'0 0.0
2018-May-14 06:30N 09°29' W 079°57'0 0.0
2018-May-14 05:57N 09°29' W 079°57'0 0.0
2018-May-14 05:12N 09°29' W 079°57'0 0.1
2018-May-14 05:00N 09°29' W 079°57'0 0.0
2018-May-14 04:27N 09°29' W 079°57'0 0.1
2018-May-14 04:00N 09°29' W 079°57'0 0.0
2018-May-14 03:27N 09°29' W 079°57'0 0.0
2018-May-14 03:00N 09°29' W 079°57'0 0.0
2018-May-14 02:30N 09°29' W 079°57'0 0.0
2018-May-14 01:51N 09°29' W 079°57'0 0.1
2018-May-14 01:30N 09°29' W 079°57'0 0.0
2018-May-14 01:00N 09°29' W 079°57'0 0.0
2018-May-14 00:27N 09°29' W 079°57'0 0.0
2018-May-13 23:57N 09°29' W 079°57'0 0.0
2018-May-13 23:30N 09°29' W 079°57'0 0.0
2018-May-13 22:57N 09°29' W 079°57'0 0.0
2018-May-13 22:27N 09°29' W 079°57'0 0.0
2018-May-13 21:54N 09°29' W 079°57'0 0.0
2018-May-13 21:30N 09°29' W 079°57'0 0.0
2018-May-13 21:00N 09°29' W 079°57'0 0.0
2018-May-13 20:30N 09°29' W 079°57'0 0.0
2018-May-13 20:00N 09°29' W 079°57'0 0.0
2018-May-13 19:30N 09°29' W 079°57'0 0.0
2018-May-13 19:00N 09°29' W 079°57'0 0.0
2018-May-13 18:30N 09°29' W 079°57'0 0.0
2018-May-13 18:00N 09°29' W 079°57'0 0.0
2018-May-13 17:30N 09°29' W 079°57'0 0.0
2018-May-13 17:00N 09°29' W 079°57'0 0.0
2018-May-13 16:30N 09°29' W 079°57'0 0.0
2018-May-13 16:00N 09°29' W 079°57'0 0.0
2018-May-13 15:30N 09°29' W 079°57'0 0.0
2018-May-13 15:00N 09°29' W 079°57'0 0.0
2018-May-13 14:30N 09°29' W 079°57'0 0.0
2018-May-13 13:57N 09°29' W 079°57'0 0.0
2018-May-13 13:30N 09°29' W 079°57'0 0.1
2018-May-13 12:57N 09°29' W 079°57'0 0.1
2018-May-13 12:30N 09°29' W 079°57'0 0.0
2018-May-13 12:00N 09°29' W 079°57'0 0.0
2018-May-13 11:30N 09°29' W 079°57'0 0.0
2018-May-13 11:00N 09°29' W 079°57'0 0.0
2018-May-13 10:30N 09°29' W 079°57'0 0.0
2018-May-13 10:00N 09°29' W 079°57'0 0.1
2018-May-13 09:30N 09°29' W 079°57'0 0.0
2018-May-13 09:00N 09°29' W 079°57'0 0.0
2018-May-13 08:27N 09°29' W 079°57'0 0.0
2018-May-13 07:51N 09°28' W 079°57'0 0.0
2018-May-13 07:27N 09°28' W 079°57'0 0.0
2018-May-13 07:00N 09°28' W 079°57'0 0.0
2018-May-13 06:27N 09°28' W 079°57'0 0.0
2018-May-13 05:57N 09°28' W 079°57'0 0.0
2018-May-13 05:27N 09°28' W 079°57'0 0.0
2018-May-13 03:21N 09°28' W 079°57'0 0.0
2018-May-13 03:00N 09°28' W 079°57'0 0.0
2018-May-13 02:24N 09°28' W 079°57'0 0.1
2018-May-13 02:00N 09°28' W 079°57'0 0.0
2018-May-13 01:09N 09°28' W 079°57'0 0.0
2018-May-13 00:54N 09°29' W 079°57'0 0.0
2018-May-13 00:30N 09°29' W 079°57'0 0.0
2018-May-12 23:57N 09°29' W 079°57'0 0.0
2018-May-12 23:30N 09°29' W 079°57'0 0.1
2018-May-12 23:00N 09°29' W 079°57'0 0.1
2018-May-12 22:21N 09°29' W 079°57'0 0.0
2018-May-12 22:00N 09°29' W 079°57'0 0.0
2018-May-12 21:30N 09°29' W 079°57'0 0.1
2018-May-12 21:00N 09°29' W 079°57'0 0.0
2018-May-12 20:30N 09°29' W 079°57'0 0.0
2018-May-12 20:00N 09°29' W 079°57'0 0.0
2018-May-12 19:30N 09°29' W 079°57'0 0.0
2018-May-12 19:00N 09°29' W 079°57'0 0.0
2018-May-12 18:27N 09°29' W 079°57'0 0.0
2018-May-12 17:57N 09°29' W 079°57'0 0.0
2018-May-12 17:30N 09°29' W 079°57'0 0.0
2018-May-12 17:00N 09°29' W 079°57'0 0.0
2018-May-12 16:30N 09°29' W 079°57'0 0.0
2018-May-12 15:57N 09°29' W 079°57'0 0.0
2018-May-12 15:27N 09°29' W 079°57'0 0.0
2018-May-12 14:57N 09°29' W 079°57'0 0.0
2018-May-12 14:18N 09°29' W 079°57'0 0.0
2018-May-12 13:57N 09°29' W 079°57'0 0.0
2018-May-12 13:30N 09°29' W 079°57'0 0.0
2018-May-12 13:00N 09°29' W 079°57'0 0.0
2018-May-12 12:15N 09°29' W 079°57'0 0.0
2018-May-12 11:45N 09°29' W 079°57'0 0.0
2018-May-12 11:27N 09°29' W 079°57'0 0.0
2018-May-12 10:57N 09°29' W 079°57'0 0.0
2018-May-12 10:30N 09°29' W 079°57'0 0.0
2018-May-12 09:57N 09°29' W 079°57'0 0.0
2018-May-12 09:30N 09°29' W 079°57'0 0.0
2018-May-12 09:00N 09°29' W 079°57'0 0.0
2018-May-12 08:21N 09°29' W 079°57'0 0.1
2018-May-12 08:00N 09°29' W 079°57'0 0.0
2018-May-12 07:24N 09°29' W 079°57'0 0.1
2018-May-12 07:00N 09°29' W 079°57'0 0.1
2018-May-12 06:30N 09°29' W 079°57'0 0.0
2018-May-12 06:00N 09°29' W 079°57'0 0.0
2018-May-12 05:30N 09°29' W 079°57'0 0.0
2018-May-12 05:00N 09°29' W 079°57'0 0.1
2018-May-12 04:27N 09°29' W 079°57'0 0.0
2018-May-12 03:57N 09°29' W 079°57'0 0.0
2018-May-12 03:24N 09°29' W 079°57'0 0.0
2018-May-12 03:00N 09°29' W 079°57'0 0.0
2018-May-12 02:24N 09°29' W 079°57'0 0.1
2018-May-12 02:00N 09°29' W 079°57'0 0.1
2018-May-12 01:30N 09°29' W 079°57'0 0.1
2018-May-12 01:00N 09°29' W 079°57'0 0.1
2018-May-12 00:30N 09°29' W 079°57'0 0.1
2018-May-11 23:54N 09°29' W 079°57'0 0.1
2018-May-11 23:27N 09°29' W 079°57'0 0.0
2018-May-11 22:54N 09°29' W 079°57'0 0.0
2018-May-11 22:27N 09°29' W 079°57'0 0.0
2018-May-11 22:00N 09°29' W 079°57'0 0.0
2018-May-11 21:27N 09°29' W 079°57'0 0.0
2018-May-11 20:57N 09°29' W 079°57'0 0.0
2018-May-11 20:30N 09°29' W 079°57'0 0.0
2018-May-11 20:00N 09°29' W 079°57'0 0.0
2018-May-11 19:27N 09°29' W 079°57'0 0.0
2018-May-11 18:48N 09°29' W 079°57'0 0.1
2018-May-11 18:24N 09°29' W 079°57'0 0.9
2018-May-11 17:54N 09°29' W 079°57'2 5.5
2018-May-11 17:30N 09°31' W 079°55'  
Track history (hours):
 
Tides and Currents Weather Stations Pressure Air Temp Water Temp Dewpoint Dewpoint Depression Visibility Wind Speed Wind Dir Waves Ship Positions

Portland

Last reported at 2018-May-15 17:21 UTC. Time now 2018-Jun-23 15:43 UTC.
Position N 09°15' W 079°55'.
Warning: this ship's position is 38 days out of date.

Length 190 m; draft 12 m.

Type: Cargo ship. MMSI: 538003411.

Date/timePositionNaut miles runAvg speedWind from/ knotsBaromVisibWave heightAir tempDewpointWater temp
2018-May-15 17:21N 09°15' W 079°55'1 0.1
2018-May-15 11:30N 09°15' W 079°55'0 0.0
2018-May-15 10:03N 09°15' W 079°55'0 0.0
2018-May-15 10:00N 09°15' W 079°55'0 0.0
2018-May-15 03:39N 09°15' W 079°55'0 0.0
2018-May-15 03:18N 09°15' W 079°55'0 0.0
2018-May-15 03:00N 09°15' W 079°55'0 0.0
2018-May-15 00:45N 09°15' W 079°55'0 0.1
2018-May-15 00:21N 09°15' W 079°55'0 0.0
2018-May-15 00:00N 09°15' W 079°55'0 0.0
2018-May-14 23:12N 09°15' W 079°55'0 0.1
2018-May-14 22:45N 09°15' W 079°55'0 0.1
2018-May-14 22:25N 09°15' W 079°55'0 0.1
2018-May-14 21:58N 09°15' W 079°55'1 2.0
2018-May-14 21:30N 09°16' W 079°55'0 0.4
2018-May-14 21:00N 09°16' W 079°55'0 0.4
2018-May-14 20:30N 09°17' W 079°55'0 0.3
2018-May-14 20:00N 09°17' W 079°55'1 2.4
2018-May-14 19:31N 09°18' W 079°55'3 6.6
2018-May-14 19:00N 09°21' W 079°55'2 3.0
2018-May-14 18:28N 09°23' W 079°55'0 0.1
2018-May-14 17:58N 09°23' W 079°55'0 0.0
2018-May-14 17:28N 09°23' W 079°55'0 0.0
2018-May-14 16:58N 09°23' W 079°55'0 0.0
2018-May-14 16:28N 09°23' W 079°55'0 0.1
2018-May-14 15:58N 09°23' W 079°55'0 0.1
2018-May-14 15:28N 09°23' W 079°55'0 0.0
2018-May-14 14:58N 09°23' W 079°55'0 0.1
2018-May-14 14:28N 09°23' W 079°55'0 0.6
2018-May-14 14:01N 09°23' W 079°55'3 5.0
2018-May-14 13:31N 09°26' W 079°55'3 3.8
2018-May-14 12:50N 09°28' W 079°56'1 2.4
2018-May-14 12:27N 09°29' W 079°57'0 0.2
2018-May-14 11:54N 09°29' W 079°57'0 0.0
2018-May-14 11:30N 09°29' W 079°57'0 0.0
2018-May-14 10:42N 09°29' W 079°57'0 0.0
2018-May-14 10:30N 09°29' W 079°57'0 0.0
2018-May-14 10:00N 09°29' W 079°57'0 0.0
2018-May-14 09:30N 09°29' W 079°57'0 0.0
2018-May-14 09:00N 09°29' W 079°57'0 0.0
2018-May-14 08:27N 09°29' W 079°57'0 0.0
2018-May-14 08:00N 09°29' W 079°57'0 0.0
2018-May-14 07:30N 09°29' W 079°57'0 0.0
2018-May-14 06:57N 09°29' W 079°57'0 0.0
2018-May-14 06:30N 09°29' W 079°57'0 0.0
2018-May-14 05:57N 09°29' W 079°57'0 0.0
2018-May-14 05:12N 09°29' W 079°57'0 0.1
2018-May-14 05:00N 09°29' W 079°57'0 0.0
2018-May-14 04:27N 09°29' W 079°57'0 0.1
2018-May-14 04:00N 09°29' W 079°57'0 0.0
2018-May-14 03:27N 09°29' W 079°57'0 0.0
2018-May-14 03:00N 09°29' W 079°57'0 0.0
2018-May-14 02:30N 09°29' W 079°57'0 0.0
2018-May-14 01:51N 09°29' W 079°57'0 0.1
2018-May-14 01:30N 09°29' W 079°57'0 0.0
2018-May-14 01:00N 09°29' W 079°57'0 0.0
2018-May-14 00:27N 09°29' W 079°57'0 0.0
2018-May-13 23:57N 09°29' W 079°57'0 0.0
2018-May-13 23:30N 09°29' W 079°57'0 0.0
2018-May-13 22:57N 09°29' W 079°57'0 0.0
2018-May-13 22:27N 09°29' W 079°57'0 0.0
2018-May-13 21:54N 09°29' W 079°57'0 0.0
2018-May-13 21:30N 09°29' W 079°57'0 0.0
2018-May-13 21:00N 09°29' W 079°57'0 0.0
2018-May-13 20:30N 09°29' W 079°57'0 0.0
2018-May-13 20:00N 09°29' W 079°57'0 0.0
2018-May-13 19:30N 09°29' W 079°57'0 0.0
2018-May-13 19:00N 09°29' W 079°57'0 0.0
2018-May-13 18:30N 09°29' W 079°57'0 0.0
2018-May-13 18:00N 09°29' W 079°57'0 0.0
2018-May-13 17:30N 09°29' W 079°57'0 0.0
2018-May-13 17:00N 09°29' W 079°57'0 0.0
2018-May-13 16:30N 09°29' W 079°57'0 0.0
2018-May-13 16:00N 09°29' W 079°57'0 0.0
2018-May-13 15:30N 09°29' W 079°57'0 0.0
2018-May-13 15:00N 09°29' W 079°57'0 0.0
2018-May-13 14:30N 09°29' W 079°57'0 0.0
2018-May-13 13:57N 09°29' W 079°57'0 0.0
2018-May-13 13:30N 09°29' W 079°57'0 0.1
2018-May-13 12:57N 09°29' W 079°57'0 0.1
2018-May-13 12:30N 09°29' W 079°57'0 0.0
2018-May-13 12:00N 09°29' W 079°57'0 0.0
2018-May-13 11:30N 09°29' W 079°57'0 0.0
2018-May-13 11:00N 09°29' W 079°57'0 0.0
2018-May-13 10:30N 09°29' W 079°57'0 0.0
2018-May-13 10:00N 09°29' W 079°57'0 0.1
2018-May-13 09:30N 09°29' W 079°57'0 0.0
2018-May-13 09:00N 09°29' W 079°57'0 0.0
2018-May-13 08:27N 09°29' W 079°57'0 0.0
2018-May-13 07:51N 09°28' W 079°57'0 0.0
2018-May-13 07:27N 09°28' W 079°57'0 0.0
2018-May-13 07:00N 09°28' W 079°57'0 0.0
2018-May-13 06:27N 09°28' W 079°57'0 0.0
2018-May-13 05:57N 09°28' W 079°57'0 0.0
2018-May-13 05:27N 09°28' W 079°57'0 0.0
2018-May-13 03:21N 09°28' W 079°57'0 0.0
2018-May-13 03:00N 09°28' W 079°57'0 0.0
2018-May-13 02:24N 09°28' W 079°57'0 0.1
2018-May-13 02:00N 09°28' W 079°57'0 0.0
2018-May-13 01:09N 09°28' W 079°57'0 0.0
2018-May-13 00:54N 09°29' W 079°57'0 0.0
2018-May-13 00:30N 09°29' W 079°57'0 0.0
2018-May-12 23:57N 09°29' W 079°57'0 0.0
2018-May-12 23:30N 09°29' W 079°57'0 0.1
2018-May-12 23:00N 09°29' W 079°57'0 0.1
2018-May-12 22:21N 09°29' W 079°57'0 0.0
2018-May-12 22:00N 09°29' W 079°57'0 0.0
2018-May-12 21:30N 09°29' W 079°57'0 0.1
2018-May-12 21:00N 09°29' W 079°57'0 0.0
2018-May-12 20:30N 09°29' W 079°57'0 0.0
2018-May-12 20:00N 09°29' W 079°57'0 0.0
2018-May-12 19:30N 09°29' W 079°57'0 0.0
2018-May-12 19:00N 09°29' W 079°57'0 0.0
2018-May-12 18:27N 09°29' W 079°57'0 0.0
2018-May-12 17:57N 09°29' W 079°57'0 0.0
2018-May-12 17:30N 09°29' W 079°57'0 0.0
2018-May-12 17:00N 09°29' W 079°57'0 0.0
2018-May-12 16:30N 09°29' W 079°57'0 0.0
2018-May-12 15:57N 09°29' W 079°57'0 0.0
2018-May-12 15:27N 09°29' W 079°57'0 0.0
2018-May-12 14:57N 09°29' W 079°57'0 0.0
2018-May-12 14:18N 09°29' W 079°57'0 0.0
2018-May-12 13:57N 09°29' W 079°57'0 0.0
2018-May-12 13:30N 09°29' W 079°57'0 0.0
2018-May-12 13:00N 09°29' W 079°57'0 0.0
2018-May-12 12:15N 09°29' W 079°57'0 0.0
2018-May-12 11:45N 09°29' W 079°57'0 0.0
2018-May-12 11:27N 09°29' W 079°57'0 0.0
2018-May-12 10:57N 09°29' W 079°57'0 0.0
2018-May-12 10:30N 09°29' W 079°57'0 0.0
2018-May-12 09:57N 09°29' W 079°57'0 0.0
2018-May-12 09:30N 09°29' W 079°57'0 0.0
2018-May-12 09:00N 09°29' W 079°57'0 0.0
2018-May-12 08:21N 09°29' W 079°57'0 0.1
2018-May-12 08:00N 09°29' W 079°57'0 0.0
2018-May-12 07:24N 09°29' W 079°57'0 0.1
2018-May-12 07:00N 09°29' W 079°57'0 0.1
2018-May-12 06:30N 09°29' W 079°57'0 0.0
2018-May-12 06:00N 09°29' W 079°57'0 0.0
2018-May-12 05:30N 09°29' W 079°57'0 0.0
2018-May-12 05:00N 09°29' W 079°57'0 0.1
2018-May-12 04:27N 09°29' W 079°57'0 0.0
2018-May-12 03:57N 09°29' W 079°57'0 0.0
2018-May-12 03:24N 09°29' W 079°57'0 0.0
2018-May-12 03:00N 09°29' W 079°57'0 0.0
2018-May-12 02:24N 09°29' W 079°57'0 0.1
2018-May-12 02:00N 09°29' W 079°57'0 0.1
2018-May-12 01:30N 09°29' W 079°57'0 0.1
2018-May-12 01:00N 09°29' W 079°57'0 0.1
2018-May-12 00:30N 09°29' W 079°57'0 0.1
2018-May-11 23:54N 09°29' W 079°57'0 0.1
2018-May-11 23:27N 09°29' W 079°57'0 0.0
2018-May-11 22:54N 09°29' W 079°57'0 0.0
2018-May-11 22:27N 09°29' W 079°57'0 0.0
2018-May-11 22:00N 09°29' W 079°57'0 0.0
2018-May-11 21:27N 09°29' W 079°57'0 0.0
2018-May-11 20:57N 09°29' W 079°57'0 0.0
2018-May-11 20:30N 09°29' W 079°57'0 0.0
2018-May-11 20:00N 09°29' W 079°57'0 0.0
2018-May-11 19:27N 09°29' W 079°57'0 0.0
2018-May-11 18:48N 09°29' W 079°57'0 0.1
2018-May-11 18:24N 09°29' W 079°57'0 0.9
2018-May-11 17:54N 09°29' W 079°57'2 5.5
2018-May-11 17:30N 09°31' W 079°55'  

Dump ship's entire track history